Meteo Giornale » Osservazioni meteo Stati Uniti (USA) » Beaufort
ore: 01:56 - Osservazioni Meteo Beaufort
Lat. 32° 29' N Lon. 80° 42' W Alt. 11 metri s.l.m.
24 °C
Sereno
Temp. 24 Ore
24 °C
32 °C
Nord
0 Km/h
Dew point 24 °C
Umidità 100 %
Visibilità 11 Km
Il sole sorge alle ore 06:57
Il sole tramonta alle ore 19:47
| Data e Ora | Cielo e Fenomeni | T °C | DP °C | Um. % | Pres. hPa | Vis. km | Vento km/h | |
|---|---|---|---|---|---|---|---|---|
| Oggi h: 01:56 | Sereno | 24 | 24 | 100 | 1018 | 11 | N 0 | |
| Oggi h: 00:56 | Sereno | 25 | 24 | 94 | 1018 | 10 | N 0 | |
| Ieri h: 23:56 | Sereno | 26 | 24 | 88 | 1018 | 10 | N 0 | |
| Ieri h: 22:56 | Poco Nuvoloso | 26 | 24 | 88 | 1019 | 11 | N 0 | |
| Ieri h: 21:56 | Poco Nuvoloso | 27 | 24 | 83 | 1019 | 11 | N 0 | |
| Ieri h: 20:56 | Sereno | 27 | 24 | 83 | 1018 | 11 | N 5.5 | |
| Ieri h: 19:56 | Nuvoloso | 28 | 24 | 78 | 1018 | 11 | N 0 | |
| Ieri h: 18:56 | Nuvoloso | 29 | 24 | 74 | 1018 | 11 | SE 9.3 | |
| Ieri h: 17:56 | Nuvoloso | 31 | 24 | 66 | 1018 | 11 | S/SE 7.4 | |
| Ieri h: 16:56 | Nuvoloso | 32 | 23 | 59 | 1017 | 11 | N 0 | |
| Ieri h: 15:56 | Nuvoloso | 30 | 23 | 66 | 1018 | 11 | E/NE 9.3 | |
| Ieri h: 14:56 | Molto Nuvoloso | 32 | 24 | 62 | 1018 | 11 | N 9.3 | |
| Ieri h: 14:08 | Molto Nuvoloso | 29 | 24 | 74 | 1019 | 11 | E 14.8 | |
| Ieri h: 13:56 | Molto Nuvoloso | 29 | 24 | 74 | 1019 | 11 | E 11.1 | |
| Ieri h: 13:03 | Molto Nuvoloso | 31 | 23 | 62 | 1020 | 11 | E 11.1 | |
| Ieri h: 12:56 | Molto Nuvoloso | 30 | 24 | 70 | 1020 | 11 | E 13 | |
| Ieri h: 11:56 | Molto Nuvoloso | 28 | 25 | 83 | 1020 | 11 | N 5.5 | |
| Ieri h: 11:08 | Molto Nuvoloso | 30 | 24 | 70 | 1020 | 11 | N 0 | |
| Ieri h: 10:56 | Molto Nuvoloso | 30 | 24 | 70 | 1020 | 11 | N 9.3 | |
| Ieri h: 09:56 | Molto Nuvoloso | 28 | 24 | 78 | 1020 | 11 | E/NE 9.3 | |
| Ieri h: 08:56 | Nuvoloso | 27 | 24 | 83 | 1020 | 11 | N/NE 9.3 | |
| Ieri h: 07:56 | Nuvoloso | 24 | 24 | 100 | 1019 | 11 | N/NE 7.4 | |
| Ieri h: 06:56 | Nuvoloso | 24 | 23 | 94 | 1018 | 11 | N/NE 7.4 | |
| Ieri h: 06:35 | Nuvoloso | 24 | 24 | 100 | 1018 | 11 | N/NE 7.4 | |
| Ieri h: 05:56 | Coperto | 24 | 24 | 100 | 1018 | 10 | N/NE 9.3 | |
| Ieri h: 05:54 | Coperto | 24 | 24 | 100 | 1018 | 10 | N 7.4 | |
| Ieri h: 05:44 | Molto Nuvoloso | 24 | 24 | 100 | 1018 | 10 | N 9.3 | |
| Ieri h: 05:25 | Molto Nuvoloso | 24 | 24 | 100 | 1018 | 10 | N 7.4 | |
| Ieri h: 04:56 | Molto Nuvoloso | 25 | 24 | 94 | 1018 | 10 | N 5.5 | |
| Ieri h: 04:36 | Molto Nuvoloso | 25 | 24 | 94 | 1018 | 10 | N 7.4 | |
| Ieri h: 03:56 | Sereno | 25 | 24 | 94 | 1018 | 10 | NE 7.4 | |



